createdAt,value
2018-07-13T00:00:13.807Z,21.5
2018-07-13T00:10:13.043Z,21.4
2018-07-13T00:20:12.279Z,21.3
2018-07-13T00:30:11.518Z,21.2
2018-07-13T00:40:10.758Z,21.1
2018-07-13T00:50:09.989Z,21
2018-07-13T01:00:09.224Z,20.9
2018-07-13T01:10:08.462Z,20.9
2018-07-13T01:20:07.693Z,20.9
2018-07-13T01:30:06.929Z,20.8
2018-07-13T01:40:06.169Z,20.8
2018-07-13T01:50:05.397Z,20.7
2018-07-13T02:00:04.633Z,20.6
2018-07-13T02:10:03.882Z,20.6
2018-07-13T02:20:03.104Z,20.4
2018-07-13T02:30:02.344Z,20.3
2018-07-13T02:40:01.576Z,20.3
2018-07-13T02:50:00.811Z,20.3
2018-07-13T03:00:00.101Z,20.3
2018-07-13T03:09:59.280Z,20.2
2018-07-13T03:19:58.517Z,20.2
2018-07-13T03:29:57.753Z,20.3
2018-07-13T03:39:56.988Z,20.6
2018-07-13T03:49:56.224Z,21.1
2018-07-13T03:59:55.463Z,21.5
2018-07-13T04:09:54.703Z,21.9
2018-07-13T04:19:53.932Z,22.3
2018-07-13T04:29:53.167Z,23.1
2018-07-13T04:39:52.405Z,23.7
2018-07-13T04:49:53.046Z,24.1
2018-07-13T04:59:50.878Z,24.9
2018-07-13T05:09:50.114Z,25.5
2018-07-13T05:19:49.359Z,25.9
2018-07-13T05:29:48.597Z,26.5
2018-07-13T05:39:47.877Z,26.9
2018-07-13T05:49:47.109Z,27.3
2018-07-13T05:59:46.308Z,28
2018-07-13T06:09:45.585Z,28.1
2018-07-13T06:19:44.777Z,28.6
2018-07-13T06:29:44.023Z,29
2018-07-13T06:39:43.249Z,29.6
2018-07-13T06:49:42.484Z,30.1
2018-07-13T06:59:41.734Z,30.5
2018-07-13T07:09:40.963Z,30.9
2018-07-13T07:19:40.201Z,31.4
2018-07-13T07:29:39.438Z,31.9
2018-07-13T07:39:38.681Z,32.5
2018-07-13T07:49:37.904Z,32.6
2018-07-13T07:59:37.147Z,33.1
2018-07-13T08:09:36.381Z,33.5
2018-07-13T08:19:35.620Z,33.4
2018-07-13T08:29:34.851Z,33.6
2018-07-13T08:39:34.093Z,33.4
2018-07-13T08:49:33.327Z,34
2018-07-13T08:59:32.574Z,34.1
2018-07-13T09:09:31.797Z,34.2
2018-07-13T09:19:31.049Z,33.9
2018-07-13T09:29:30.271Z,34.6
2018-07-13T09:39:29.560Z,34.4
2018-07-13T09:49:28.748Z,33.6
2018-07-13T09:59:27.989Z,33.7
2018-07-13T10:09:27.233Z,33.9
2018-07-13T10:19:26.477Z,33.6
2018-07-13T10:29:25.717Z,33.3
2018-07-13T10:39:24.964Z,33.1
2018-07-13T10:49:24.189Z,33
2018-07-13T10:59:23.433Z,33.4
2018-07-13T11:09:22.676Z,33.4
2018-07-13T11:19:21.908Z,32.8
2018-07-13T11:29:21.147Z,32.6
2018-07-13T11:39:20.384Z,32.6
2018-07-13T11:49:19.680Z,31.6
2018-07-13T11:59:18.860Z,30.4
2018-07-13T12:09:18.101Z,30.1
2018-07-13T12:19:17.337Z,29.4
2018-07-13T12:29:16.577Z,28.8
2018-07-13T12:39:15.812Z,28.6
2018-07-13T12:49:15.053Z,27.8
2018-07-13T12:59:14.286Z,27.2
2018-07-13T13:09:13.529Z,26.9
2018-07-13T13:19:12.765Z,26.7
2018-07-13T13:29:12.018Z,26.4
2018-07-13T13:39:11.235Z,26.5
2018-07-13T13:49:10.471Z,26.5
2018-07-13T13:59:09.708Z,26.5
2018-07-13T14:09:08.977Z,26.6
2018-07-13T14:19:08.183Z,26.8
2018-07-13T14:29:07.469Z,26.7
2018-07-13T14:39:06.657Z,26.4
2018-07-13T14:49:05.898Z,26.3
2018-07-13T14:59:05.139Z,26.3
2018-07-13T15:09:04.374Z,26.4
2018-07-13T15:19:03.613Z,26.4
2018-07-13T15:29:02.911Z,26.4
2018-07-13T15:39:02.135Z,26.4
2018-07-13T15:49:01.325Z,26.4
2018-07-13T15:59:00.570Z,26.4
2018-07-13T16:08:59.803Z,26.5
2018-07-13T16:18:59.036Z,26.4
2018-07-13T16:28:58.277Z,26.3
2018-07-13T16:38:57.514Z,26.3
2018-07-13T16:48:56.758Z,26.2
2018-07-13T16:58:55.993Z,26.1
2018-07-13T17:08:55.279Z,26.1
2018-07-13T17:18:54.524Z,26.1
2018-07-13T17:28:53.710Z,25.8
2018-07-13T17:38:52.948Z,25.7
2018-07-13T17:48:52.241Z,25.4
2018-07-13T17:58:51.431Z,25.1
2018-07-13T18:08:50.670Z,25
2018-07-13T18:18:49.906Z,24.8
2018-07-13T18:28:49.145Z,24.6
2018-07-13T18:38:48.471Z,24.3
2018-07-13T18:48:47.630Z,23.9
2018-07-13T18:58:46.898Z,23.7
2018-07-13T19:08:46.112Z,23.4
2018-07-13T19:18:45.345Z,23.3
2018-07-13T19:28:44.583Z,23.2
2018-07-13T19:38:43.827Z,23.2
2018-07-13T19:48:43.060Z,23.1
2018-07-13T19:58:42.305Z,23
2018-07-13T20:08:41.547Z,23
2018-07-13T20:18:40.780Z,22.9
2018-07-13T20:28:40.020Z,22.9
2018-07-13T20:38:39.260Z,22.9
2018-07-13T20:48:38.498Z,22.8
2018-07-13T20:58:37.736Z,22.8
2018-07-13T21:08:36.977Z,22.8
2018-07-13T21:18:36.216Z,22.8
2018-07-13T21:28:35.550Z,22.8
2018-07-13T21:38:34.692Z,22.6
2018-07-13T21:48:33.931Z,22.5
2018-07-13T21:58:33.172Z,22.4
2018-07-13T22:08:32.410Z,22.3
2018-07-13T22:18:31.649Z,22.2
2018-07-13T22:28:30.888Z,22.1
2018-07-13T22:38:30.125Z,22
2018-07-13T22:48:29.364Z,21.9
2018-07-13T22:58:28.605Z,21.9
2018-07-13T23:08:27.841Z,21.9
2018-07-13T23:18:27.080Z,21.9
2018-07-13T23:28:26.319Z,21.9
2018-07-13T23:38:25.556Z,21.8
2018-07-13T23:48:24.795Z,21.9
2018-07-13T23:58:24.032Z,21.9
